createdAt,value
2022-12-15T00:02:36.089Z,96344.19
2022-12-15T00:05:34.331Z,96342.50
2022-12-15T00:08:30.011Z,96348.00
2022-12-15T00:11:15.892Z,96348.31
2022-12-15T00:14:01.772Z,96365.06
2022-12-15T00:16:47.083Z,96353.66
2022-12-15T00:19:32.432Z,96357.47
2022-12-15T00:22:17.976Z,96362.66
2022-12-15T00:25:03.573Z,96369.53
2022-12-15T00:27:49.355Z,96367.41
2022-12-15T00:30:34.824Z,96358.75
2022-12-15T00:33:27.599Z,96350.41
2022-12-15T00:36:14.696Z,96345.53
2022-12-15T00:38:45.083Z,96345.41
2022-12-15T00:41:17.344Z,96349.69
2022-12-15T00:43:45.149Z,96354.06
2022-12-15T00:46:31.264Z,96370.66
2022-12-15T00:48:59.637Z,96376.13
2022-12-15T00:51:47.374Z,96378.56
2022-12-15T00:54:33.016Z,96381.44
2022-12-15T00:57:19.756Z,96381.56
2022-12-15T01:00:06.387Z,96377.75
2022-12-15T01:02:52.250Z,96387.31
2022-12-15T01:05:38.040Z,96390.28
2022-12-15T01:08:23.548Z,96391.59
2022-12-15T01:11:09.081Z,96391.41
2022-12-15T01:13:54.642Z,96404.06
2022-12-15T01:16:39.920Z,96401.16
2022-12-15T01:19:27.263Z,96393.50
2022-12-15T01:21:54.589Z,96404.47
2022-12-15T01:24:22.768Z,96386.50
2022-12-15T01:26:49.681Z,96399.75
2022-12-15T01:29:16.629Z,96412.34
2022-12-15T01:31:44.280Z,96425.59
2022-12-15T01:34:11.245Z,96430.31
2022-12-15T01:36:38.206Z,96433.38
2022-12-15T01:39:05.266Z,96437.97
2022-12-15T01:41:32.109Z,96441.91
2022-12-15T01:44:19.205Z,96438.47
2022-12-15T01:46:49.365Z,96449.31
2022-12-15T01:49:22.481Z,96451.91
2022-12-15T01:51:54.504Z,96452.44
2022-12-15T01:54:25.587Z,96451.88
2022-12-15T01:56:56.988Z,96452.06
2022-12-15T01:59:31.519Z,96444.59
2022-12-15T02:01:58.584Z,96437.34
2022-12-15T02:04:27.100Z,96434.03
2022-12-15T02:06:54.421Z,96444.28
2022-12-15T02:09:23.802Z,96453.91
2022-12-15T02:12:41.809Z,96464.59
2022-12-15T02:15:11.706Z,96473.03
2022-12-15T02:17:56.858Z,96473.66
2022-12-15T02:20:49.851Z,96469.22
2022-12-15T02:24:02.773Z,96476.44
2022-12-15T02:26:41.775Z,96487.28
2022-12-15T02:29:22.253Z,96484.72
2022-12-15T02:32:20.340Z,96483.06
2022-12-15T02:34:54.894Z,96491.91
2022-12-15T02:37:31.992Z,96487.63
2022-12-15T02:39:59.327Z,96494.78
2022-12-15T02:42:28.731Z,96498.31
2022-12-15T02:45:28.316Z,96490.06
2022-12-15T02:48:04.539Z,96506.25
2022-12-15T02:50:40.575Z,96514.81
2022-12-15T02:53:26.252Z,96519.41
2022-12-15T02:56:11.234Z,96522.00
2022-12-15T02:58:44.661Z,96513.91
2022-12-15T03:01:30.877Z,96521.84
2022-12-15T03:04:00.821Z,96533.53
2022-12-15T03:06:28.725Z,96538.06
2022-12-15T03:08:55.551Z,96530.19
2022-12-15T03:11:22.811Z,96529.78
2022-12-15T03:13:49.939Z,96538.75
2022-12-15T03:16:17.543Z,96546.84
2022-12-15T03:18:44.394Z,96544.88
2022-12-15T03:21:11.240Z,96553.75
2022-12-15T03:23:38.656Z,96558.31
2022-12-15T03:26:06.640Z,96572.69
2022-12-15T03:28:34.258Z,96562.03
2022-12-15T03:31:01.180Z,96563.88
2022-12-15T03:33:33.267Z,96572.75
2022-12-15T03:36:00.981Z,96570.31
2022-12-15T03:38:27.918Z,96567.88
2022-12-15T03:40:54.788Z,96566.09
2022-12-15T03:43:21.644Z,96566.72
2022-12-15T03:45:48.516Z,96569.47
2022-12-15T03:48:15.370Z,96564.47
2022-12-15T03:50:42.152Z,96561.63
2022-12-15T03:53:09.008Z,96555.97
2022-12-15T03:55:36.017Z,96558.59
2022-12-15T03:58:02.993Z,96564.41
2022-12-15T04:00:30.275Z,96569.25
2022-12-15T04:02:57.228Z,96570.91
2022-12-15T04:05:29.634Z,96573.38
2022-12-15T04:07:58.195Z,96578.09
2022-12-15T04:10:31.918Z,96575.00
2022-12-15T04:13:02.703Z,96576.56
2022-12-15T04:15:29.947Z,96578.09
2022-12-15T04:17:56.988Z,96580.22
2022-12-15T04:20:24.822Z,96579.34
2022-12-15T04:22:51.879Z,96583.94
2022-12-15T04:25:40.576Z,96583.94
2022-12-15T04:28:27.075Z,96596.31
2022-12-15T04:31:26.219Z,96583.22
2022-12-15T04:34:15.193Z,96586.56
2022-12-15T04:37:03.054Z,96587.22
2022-12-15T04:39:49.065Z,96593.94
2022-12-15T04:42:35.014Z,96596.53
2022-12-15T04:45:23.258Z,96587.97
2022-12-15T04:48:08.414Z,96596.53
2022-12-15T04:50:54.009Z,96588.75
2022-12-15T04:53:39.955Z,96603.56
2022-12-15T04:56:34.268Z,96598.06
2022-12-15T04:59:20.020Z,96604.78
2022-12-15T05:02:08.764Z,96613.31
2022-12-15T05:04:54.642Z,96614.56
2022-12-15T05:07:40.130Z,96620.06
2022-12-15T05:10:25.900Z,96624.88
2022-12-15T05:13:11.337Z,96625.66
2022-12-15T05:15:56.949Z,96622.28
2022-12-15T05:18:45.269Z,96623.97
2022-12-15T05:21:30.747Z,96621.66
2022-12-15T05:24:16.196Z,96633.72
2022-12-15T05:27:01.783Z,96634.75
2022-12-15T05:29:47.149Z,96638.72
2022-12-15T05:32:13.994Z,96640.09
2022-12-15T05:34:40.750Z,96654.16
2022-12-15T05:37:07.584Z,96650.78
2022-12-15T05:39:34.694Z,96665.91
2022-12-15T05:42:01.692Z,96658.13
2022-12-15T05:44:28.709Z,96659.47
2022-12-15T05:46:55.584Z,96674.59
2022-12-15T05:49:23.539Z,96670.00
2022-12-15T05:51:50.947Z,96684.03
2022-12-15T05:54:19.742Z,96679.75
2022-12-15T05:56:50.445Z,96678.56
2022-12-15T05:59:19.365Z,96686.22
2022-12-15T06:01:46.510Z,96688.81
2022-12-15T06:04:14.245Z,96703.66
2022-12-15T06:06:41.944Z,96698.16
2022-12-15T06:09:09.391Z,96700.16
2022-12-15T06:11:37.633Z,96704.22
2022-12-15T06:14:04.764Z,96705.00
2022-12-15T06:16:31.990Z,96705.44
2022-12-15T06:19:01.721Z,96705.31
2022-12-15T06:21:35.492Z,96713.44
2022-12-15T06:24:02.758Z,96712.53
2022-12-15T06:26:33.796Z,96718.66
2022-12-15T06:29:05.499Z,96708.44
2022-12-15T06:31:33.264Z,96712.25
2022-12-15T06:34:06.185Z,96712.13
2022-12-15T06:36:33.403Z,96718.38
2022-12-15T06:39:01.669Z,96718.09
2022-12-15T06:41:30.510Z,96718.09
2022-12-15T06:43:58.268Z,96712.72
2022-12-15T06:49:21.806Z,96718.16
2022-12-15T06:51:50.023Z,96717.41
2022-12-15T06:54:16.804Z,96719.38
2022-12-15T06:56:43.998Z,96712.34
2022-12-15T06:59:12.121Z,96711.91
2022-12-15T07:01:39.675Z,96719.25
2022-12-15T07:04:06.884Z,96717.06
2022-12-15T07:06:38.471Z,96706.41
2022-12-15T07:09:13.837Z,96706.72
2022-12-15T07:11:40.796Z,96700.91
2022-12-15T07:14:07.711Z,96698.16
2022-12-15T07:16:34.775Z,96695.09
2022-12-15T07:19:01.894Z,96699.56
2022-12-15T07:21:28.778Z,96703.72
2022-12-15T07:23:57.074Z,96712.91
2022-12-15T07:26:24.580Z,96718.25
2022-12-15T07:28:51.882Z,96723.50
2022-12-15T07:31:18.795Z,96728.84
2022-12-15T07:33:45.852Z,96727.66
2022-12-15T07:36:13.323Z,96748.41
2022-12-15T07:38:40.142Z,96752.50
2022-12-15T07:41:08.388Z,96756.91
2022-12-15T07:43:36.350Z,96758.19
2022-12-15T07:46:04.683Z,96754.09
2022-12-15T07:48:31.811Z,96758.88
2022-12-15T07:51:07.336Z,96768.06
2022-12-15T07:53:36.278Z,96775.72
2022-12-15T07:56:07.917Z,96768.13
2022-12-15T07:58:35.770Z,96766.00
2022-12-15T08:01:05.153Z,96759.88
2022-12-15T08:03:32.854Z,96783.44
2022-12-15T08:06:06.570Z,96793.84
2022-12-15T08:08:35.034Z,96789.25
2022-12-15T08:11:06.780Z,96786.84
2022-12-15T08:16:24.816Z,96799.09
2022-12-15T08:18:51.750Z,96804.63
2022-12-15T08:21:19.052Z,96793.16
2022-12-15T08:23:46.099Z,96796.09
2022-12-15T08:26:15.684Z,96787.69
2022-12-15T08:28:43.449Z,96782.38
2022-12-15T08:31:17.489Z,96788.19
2022-12-15T08:33:45.732Z,96778.09
2022-12-15T08:36:15.619Z,96778.72
2022-12-15T08:38:43.830Z,96780.28
2022-12-15T08:41:19.881Z,96784.84
2022-12-15T08:43:49.225Z,96785.63
2022-12-15T08:46:18.312Z,96780.59
2022-12-15T08:48:45.848Z,96782.44
2022-12-15T08:51:13.291Z,96793.28
2022-12-15T08:53:40.269Z,96796.47
2022-12-15T08:56:10.388Z,96804.13
2022-12-15T08:58:37.267Z,96797.69
2022-12-15T09:01:07.121Z,96806.53
2022-12-15T09:03:35.947Z,96808.50
2022-12-15T09:06:04.814Z,96823.94
2022-12-15T09:08:31.797Z,96808.00
2022-12-15T09:10:59.118Z,96815.78
2022-12-15T09:13:27.837Z,96829.44
2022-12-15T09:16:13.308Z,96812.63
2022-12-15T09:18:43.453Z,96819.09
2022-12-15T09:21:11.587Z,96814.81
2022-12-15T09:23:39.513Z,96819.09
2022-12-15T09:26:12.680Z,96829.19
2022-12-15T09:28:39.543Z,96837.78
2022-12-15T09:31:14.953Z,96828.28
2022-12-15T09:33:43.434Z,96838.41
2022-12-15T09:36:13.285Z,96850.91
2022-12-15T09:38:41.857Z,96845.38
2022-12-15T09:41:17.854Z,96846.63
2022-12-15T09:43:53.855Z,96856.53
2022-12-15T09:46:27.734Z,96859.13
2022-12-15T09:48:56.032Z,96856.72
2022-12-15T09:51:32.130Z,96838.84
2022-12-15T09:53:59.701Z,96844.81
2022-12-15T09:56:39.002Z,96847.91
2022-12-15T09:59:20.715Z,96845.19
2022-12-15T10:01:52.801Z,96846.41
2022-12-15T10:04:26.805Z,96848.56
2022-12-15T10:07:42.127Z,96842.44
2022-12-15T10:10:30.275Z,96847.16
2022-12-15T10:13:05.250Z,96854.84
2022-12-15T10:15:42.148Z,96851.03
2022-12-15T10:18:22.813Z,96846.78
2022-12-15T10:20:53.094Z,96839.72
2022-12-15T10:23:20.487Z,96838.47
2022-12-15T10:25:51.355Z,96831.31
2022-12-15T10:28:43.345Z,96829.97
2022-12-15T10:31:20.333Z,96826.91
2022-12-15T10:33:56.326Z,96827.50
2022-12-15T10:36:23.736Z,96825.06
2022-12-15T10:38:50.858Z,96819.84
2022-12-15T10:41:20.431Z,96834.75
2022-12-15T10:43:50.333Z,96824.78
2022-12-15T10:46:19.074Z,96825.56
2022-12-15T10:48:49.235Z,96829.38
2022-12-15T10:51:32.565Z,96828.59
2022-12-15T10:54:13.209Z,96841.84
2022-12-15T10:57:04.565Z,96834.56
2022-12-15T10:59:36.769Z,96827.16
2022-12-15T11:02:24.396Z,96811.34
2022-12-15T11:05:01.293Z,96806.47
2022-12-15T11:07:55.628Z,96803.84
2022-12-15T11:10:50.072Z,96807.28
2022-12-15T11:13:23.894Z,96796.94
2022-12-15T11:15:56.419Z,96787.22
2022-12-15T11:18:29.237Z,96792.34
2022-12-15T11:21:12.457Z,96788.78
2022-12-15T11:23:50.878Z,96788.16
2022-12-15T11:26:40.330Z,96784.22
2022-12-15T11:29:28.005Z,96791.22
2022-12-15T11:31:57.953Z,96784.28
2022-12-15T11:34:46.184Z,96788.94
2022-12-15T11:37:52.042Z,96796.69
2022-12-15T11:40:40.717Z,96798.28
2022-12-15T11:43:41.677Z,96795.78
2022-12-15T11:46:21.016Z,96789.47
2022-12-15T11:49:12.171Z,96789.22
2022-12-15T11:51:49.681Z,96772.22
2022-12-15T11:54:44.102Z,96758.53
2022-12-15T11:57:54.999Z,96764.38
2022-12-15T12:00:23.360Z,96765.41
2022-12-15T12:03:00.872Z,96760.56
2022-12-15T12:05:42.664Z,96754.16
2022-12-15T12:08:51.207Z,96748.88
2022-12-15T12:11:34.869Z,96739.50
2022-12-15T12:14:18.104Z,96730.94
2022-12-15T12:17:01.200Z,96718.53
2022-12-15T12:19:35.318Z,96725.84
2022-12-15T12:22:26.348Z,96723.25
2022-12-15T12:25:04.109Z,96720.41
2022-12-15T12:27:45.351Z,96714.00
2022-12-15T12:30:22.663Z,96708.31
2022-12-15T12:33:09.175Z,96719.97
2022-12-15T12:35:45.519Z,96721.13
2022-12-15T12:38:13.836Z,96719.31
2022-12-15T12:40:40.589Z,96718.56
2022-12-15T12:43:36.388Z,96709.78
2022-12-15T12:46:15.258Z,96716.31
2022-12-15T12:48:56.254Z,96717.50
2022-12-15T12:51:38.129Z,96730.66
2022-12-15T12:54:40.154Z,96718.06
2022-12-15T12:57:12.842Z,96725.81
2022-12-15T12:59:49.166Z,96713.13
2022-12-15T13:02:38.217Z,96715.34
2022-12-15T13:05:34.209Z,96715.63
2022-12-15T13:08:05.137Z,96712.09
2022-12-15T13:10:34.221Z,96717.06
2022-12-15T13:13:38.598Z,96706.78
2022-12-15T13:16:24.008Z,96701.78
2022-12-15T13:19:08.583Z,96691.63
2022-12-15T13:21:44.547Z,96686.97
2022-12-15T13:24:35.671Z,96693.41
2022-12-15T13:27:08.463Z,96700.44
2022-12-15T13:29:37.320Z,96699.94
2022-12-15T13:32:04.423Z,96699.00
2022-12-15T13:34:41.056Z,96700.88
2022-12-15T13:37:46.964Z,96715.94
2022-12-15T13:40:52.507Z,96717.00
2022-12-15T13:43:28.077Z,96714.16
2022-12-15T13:46:10.486Z,96709.97
2022-12-15T13:48:44.709Z,96697.88
2022-12-15T13:51:24.363Z,96698.91
2022-12-15T13:54:25.027Z,96693.25
2022-12-15T13:57:01.275Z,96682.44
2022-12-15T13:59:30.915Z,96673.50
2022-12-15T14:01:57.886Z,96674.69
2022-12-15T14:04:26.255Z,96670.56
2022-12-15T14:07:01.681Z,96667.50
2022-12-15T14:09:36.423Z,96654.09
2022-12-15T14:12:07.468Z,96659.88
2022-12-15T14:14:36.974Z,96649.94
2022-12-15T14:17:15.438Z,96649.41
2022-12-15T14:19:46.433Z,96655.69
2022-12-15T14:22:30.677Z,96633.75
2022-12-15T14:25:04.290Z,96631.47
2022-12-15T14:27:34.045Z,96643.53
2022-12-15T14:30:30.068Z,96648.34
2022-12-15T14:33:08.333Z,96647.88
2022-12-15T14:35:42.371Z,96647.06
2022-12-15T14:38:26.282Z,96651.69
2022-12-15T14:40:57.240Z,96647.94
2022-12-15T14:43:30.002Z,96646.00
2022-12-15T14:46:11.187Z,96656.13
2022-12-15T14:48:43.216Z,96662.34
2022-12-15T14:51:12.931Z,96673.59
2022-12-15T14:53:43.186Z,96673.78
2022-12-15T14:56:14.656Z,96670.09
2022-12-15T14:58:42.221Z,96683.63
2022-12-15T15:01:24.385Z,96690.69
2022-12-15T15:04:01.546Z,96693.59
2022-12-15T15:06:52.045Z,96699.41
2022-12-15T15:09:42.063Z,96682.28
2022-12-15T15:12:16.493Z,96691.91
2022-12-15T15:15:03.292Z,96699.72
2022-12-15T15:17:45.618Z,96705.66
2022-12-15T15:20:18.331Z,96701.38
2022-12-15T15:22:46.989Z,96707.50
2022-12-15T15:25:40.250Z,96694.16
2022-12-15T15:28:16.017Z,96693.69
2022-12-15T15:30:48.613Z,96703.72
2022-12-15T15:33:17.083Z,96701.25
2022-12-15T15:35:46.724Z,96700.44
2022-12-15T15:38:20.468Z,96715.25
2022-12-15T15:40:51.552Z,96718.59
2022-12-15T15:43:19.407Z,96713.38
2022-12-15T15:45:48.508Z,96712.09
2022-12-15T15:48:27.082Z,96704.44
2022-12-15T15:50:55.970Z,96705.34
2022-12-15T15:53:25.294Z,96699.22
2022-12-15T15:55:55.289Z,96697.03
2022-12-15T15:58:22.438Z,96697.59
2022-12-15T16:00:50.166Z,96706.41
2022-12-15T16:03:17.807Z,96705.25
2022-12-15T16:05:45.229Z,96710.75
2022-12-15T16:08:19.769Z,96718.53
2022-12-15T16:10:49.091Z,96711.50
2022-12-15T16:13:25.949Z,96706.78
2022-12-15T16:15:54.858Z,96697.34
2022-12-15T16:18:22.188Z,96692.63
2022-12-15T16:20:51.971Z,96681.31
2022-12-15T16:23:22.713Z,96680.88
2022-12-15T16:25:55.390Z,96674.72
2022-12-15T16:28:25.193Z,96669.25
2022-12-15T16:30:52.601Z,96676.13
2022-12-15T16:33:19.719Z,96679.19
2022-12-15T16:35:50.955Z,96679.19
2022-12-15T16:38:31.025Z,96683.28
2022-12-15T16:41:05.626Z,96689.53
2022-12-15T16:43:38.167Z,96683.41
2022-12-15T16:46:07.532Z,96691.00
2022-12-15T16:48:35.251Z,96689.25
2022-12-15T16:51:07.278Z,96694.72
2022-12-15T16:53:39.294Z,96705.19
2022-12-15T16:56:08.427Z,96700.66
2022-12-15T16:58:36.596Z,96698.09
2022-12-15T17:01:04.233Z,96694.91
2022-12-15T17:03:31.748Z,96699.03
2022-12-15T17:06:02.133Z,96698.47
2022-12-15T17:08:43.088Z,96682.66
2022-12-15T17:11:18.737Z,96683.63
2022-12-15T17:13:50.775Z,96686.09
2022-12-15T17:16:19.886Z,96674.97
2022-12-15T17:18:47.799Z,96681.56
2022-12-15T17:21:21.982Z,96673.78
2022-12-15T17:23:52.649Z,96672.44
2022-12-15T17:26:29.076Z,96673.06
2022-12-15T17:29:01.558Z,96669.88
2022-12-15T17:31:34.667Z,96672.81
2022-12-15T17:34:20.036Z,96667.31
2022-12-15T17:36:47.167Z,96661.94
2022-12-15T17:39:14.746Z,96684.44
2022-12-15T17:44:34.178Z,96678.59
2022-12-15T17:47:05.724Z,96685.00
2022-12-15T17:49:35.935Z,96685.91
2022-12-15T17:52:21.226Z,96681.94
2022-12-15T17:54:49.911Z,96677.06
2022-12-15T17:57:17.014Z,96671.78
2022-12-15T17:59:44.043Z,96677.13
2022-12-15T18:02:15.024Z,96691.97
2022-12-15T18:04:43.172Z,96688.75
2022-12-15T18:07:18.906Z,96693.94
2022-12-15T18:09:46.224Z,96686.91
2022-12-15T18:12:22.503Z,96675.47
2022-12-15T18:14:49.842Z,96669.06
2022-12-15T18:17:16.954Z,96662.66
2022-12-15T18:19:44.186Z,96667.91
2022-12-15T18:22:23.770Z,96682.47
2022-12-15T18:24:53.229Z,96683.09
2022-12-15T18:27:23.848Z,96689.66
2022-12-15T18:29:51.089Z,96676.53
2022-12-15T18:32:19.013Z,96670.63
2022-12-15T18:34:46.899Z,96668.19
2022-12-15T18:37:19.225Z,96649.28
2022-12-15T18:39:47.477Z,96646.53
2022-12-15T18:42:20.377Z,96661.47
2022-12-15T18:44:50.363Z,96646.19
2022-12-15T18:47:22.876Z,96656.59
2022-12-15T18:49:50.130Z,96648.19
2022-12-15T18:52:20.126Z,96645.47
2022-12-15T18:54:51.626Z,96642.13
2022-12-15T18:57:27.782Z,96638.78
2022-12-15T19:00:01.868Z,96634.69
2022-12-15T19:02:29.145Z,96629.78
2022-12-15T19:04:56.360Z,96635.91
2022-12-15T19:07:23.931Z,96619.25
2022-12-15T19:09:51.192Z,96619.84
2022-12-15T19:12:18.696Z,96623.09
2022-12-15T19:14:47.765Z,96615.44
2022-12-15T19:17:41.311Z,96615.75
2022-12-15T19:20:38.448Z,96622.78
2022-12-15T19:23:07.063Z,96620.03
2022-12-15T19:25:35.036Z,96624.59
2022-12-15T19:28:02.305Z,96619.53
2022-12-15T19:30:31.386Z,96617.38
2022-12-15T19:32:58.722Z,96583.25
2022-12-15T19:35:27.533Z,96596.41
2022-12-15T19:37:56.980Z,96600.19
2022-12-15T19:40:30.639Z,96585.81
2022-12-15T19:42:58.553Z,96584.41
2022-12-15T19:45:30.742Z,96582.25
2022-12-15T19:47:58.436Z,96584.06
2022-12-15T19:50:36.689Z,96574.88
2022-12-15T19:53:26.769Z,96565.69
2022-12-15T19:55:57.310Z,96574.81
2022-12-15T19:58:31.503Z,96566.41
2022-12-15T20:01:05.901Z,96556.72
2022-12-15T20:03:34.469Z,96557.31
2022-12-15T20:06:03.009Z,96541.97
2022-12-15T20:08:34.717Z,96549.41
2022-12-15T20:11:01.815Z,96542.03
2022-12-15T20:13:28.743Z,96536.53
2022-12-15T20:15:55.939Z,96530.25
2022-12-15T20:18:22.704Z,96541.69
2022-12-15T20:20:49.996Z,96528.00
2022-12-15T20:23:26.331Z,96520.31
2022-12-15T20:25:54.956Z,96521.16
2022-12-15T20:28:27.569Z,96509.22
2022-12-15T20:30:56.326Z,96516.06
2022-12-15T20:33:23.622Z,96508.06
2022-12-15T20:35:51.226Z,96510.94
2022-12-15T20:38:33.131Z,96507.88
2022-12-15T20:41:01.726Z,96523.78
2022-12-15T20:43:35.074Z,96527.63
2022-12-15T20:46:07.068Z,96518.56
2022-12-15T20:48:36.768Z,96518.56
2022-12-15T20:51:09.270Z,96521.72
2022-12-15T20:53:37.699Z,96517.44
2022-12-15T20:56:04.904Z,96516.19
2022-12-15T20:58:33.335Z,96516.97
2022-12-15T21:01:00.529Z,96516.97
2022-12-15T21:03:34.177Z,96514.66
2022-12-15T21:06:01.215Z,96512.69
2022-12-15T21:08:31.316Z,96516.97
2022-12-15T21:11:07.362Z,96520.69
2022-12-15T21:13:35.494Z,96518.66
2022-12-15T21:16:02.610Z,96513.63
2022-12-15T21:19:03.969Z,96515.63
2022-12-15T21:21:32.360Z,96511.34
2022-12-15T21:24:01.299Z,96522.19
2022-12-15T21:26:28.805Z,96518.66
2022-12-15T21:28:59.184Z,96504.13
2022-12-15T21:31:26.574Z,96512.88
2022-12-15T21:33:53.544Z,96520.69
2022-12-15T21:36:22.363Z,96520.38
2022-12-15T21:38:52.586Z,96522.69
2022-12-15T21:41:22.473Z,96518.38
2022-12-15T21:43:50.062Z,96528.66
2022-12-15T21:46:27.560Z,96545.22
2022-12-15T21:49:14.575Z,96540.00
2022-12-15T21:51:44.439Z,96545.81
2022-12-15T21:54:18.664Z,96534.75
2022-12-15T21:56:47.522Z,96536.56
2022-12-15T21:59:17.279Z,96528.59
2022-12-15T22:01:44.382Z,96534.69
2022-12-15T22:04:36.523Z,96546.03
2022-12-15T22:07:05.960Z,96543.72
2022-12-15T22:09:32.704Z,96541.44
2022-12-15T22:11:59.526Z,96545.47
2022-12-15T22:14:33.174Z,96556.50
2022-12-15T22:17:02.195Z,96560.50
2022-12-15T22:19:29.016Z,96567.25
2022-12-15T22:21:55.780Z,96570.00
2022-12-15T22:24:22.576Z,96577.97
2022-12-15T22:26:49.451Z,96574.75
2022-12-15T22:29:19.436Z,96568.47
2022-12-15T22:31:47.895Z,96560.94
2022-12-15T22:34:20.520Z,96560.19
2022-12-15T22:36:48.022Z,96555.44
2022-12-15T22:39:15.080Z,96549.63
2022-12-15T22:41:47.811Z,96539.06
2022-12-15T22:44:22.774Z,96537.06
2022-12-15T22:46:51.426Z,96532.00
2022-12-15T22:49:21.143Z,96525.72
2022-12-15T22:51:48.392Z,96506.56
2022-12-15T22:54:19.398Z,96504.13
2022-12-15T22:56:49.267Z,96497.34
2022-12-15T22:59:26.154Z,96489.81
2022-12-15T23:01:53.391Z,96494.59
2022-12-15T23:04:21.656Z,96489.06
2022-12-15T23:06:48.766Z,96500.41
2022-12-15T23:09:15.581Z,96508.69
2022-12-15T23:11:42.391Z,96508.22
2022-12-15T23:14:12.707Z,96501.44
2022-12-15T23:16:40.030Z,96500.69
2022-12-15T23:19:08.103Z,96506.03
2022-12-15T23:21:36.121Z,96508.03
2022-12-15T23:24:02.941Z,96505.53
2022-12-15T23:26:29.683Z,96500.78
2022-12-15T23:28:56.512Z,96498.78
2022-12-15T23:31:23.434Z,96497.25
2022-12-15T23:33:52.143Z,96488.53
2022-12-15T23:36:19.209Z,96497.56
2022-12-15T23:38:46.417Z,96490.81
2022-12-15T23:41:17.863Z,96500.59
2022-12-15T23:43:44.964Z,96495.38
2022-12-15T23:46:12.123Z,96496.91
2022-12-15T23:48:41.668Z,96493.84
2022-12-15T23:51:12.755Z,96496.16
2022-12-15T23:53:40.520Z,96490.63
2022-12-15T23:56:10.637Z,96493.38
2022-12-15T23:58:39.539Z,96475.75
